createdAt,value
2023-02-19T00:01:37.262Z,42.62
2023-02-19T00:03:41.925Z,42.72
2023-02-19T00:05:46.364Z,42.57
2023-02-19T00:07:53.600Z,43.01
2023-02-19T00:09:58.054Z,42.52
2023-02-19T00:12:03.027Z,42.64
2023-02-19T00:14:08.186Z,42.69
2023-02-19T00:16:15.165Z,42.84
2023-02-19T00:18:19.872Z,42.69
2023-02-19T00:20:24.449Z,42.61
2023-02-19T00:22:29.409Z,42.69
2023-02-19T00:24:36.520Z,42.87
2023-02-19T00:26:41.670Z,42.58
2023-02-19T00:28:46.164Z,42.60
2023-02-19T00:30:50.671Z,43.07
2023-02-19T00:32:55.574Z,42.62
2023-02-19T00:35:00.106Z,43.05
2023-02-19T00:37:04.837Z,42.65
2023-02-19T00:39:10.338Z,42.74
2023-02-19T00:41:24.285Z,43.04
2023-02-19T00:43:28.962Z,43.10
2023-02-19T00:45:35.101Z,42.62
2023-02-19T00:47:40.008Z,42.89
2023-02-19T00:49:45.158Z,42.95
2023-02-19T00:51:49.795Z,43.21
2023-02-19T00:53:54.597Z,42.79
2023-02-19T00:55:59.078Z,43.23
2023-02-19T00:58:06.506Z,42.90
2023-02-19T01:00:12.126Z,42.77
2023-02-19T01:02:17.101Z,42.80
2023-02-19T01:04:21.572Z,43.19
2023-02-19T01:06:26.260Z,43.11
2023-02-19T01:08:32.143Z,43.18
2023-02-19T01:10:38.477Z,43.28
2023-02-19T01:12:43.176Z,43.09
2023-02-19T01:14:50.344Z,43.15
2023-02-19T01:16:54.760Z,42.97
2023-02-19T01:18:59.506Z,43.23
2023-02-19T01:21:07.751Z,42.69
2023-02-19T01:23:13.377Z,43.04
2023-02-19T01:25:18.322Z,43.03
2023-02-19T01:27:22.990Z,42.96
2023-02-19T01:29:27.407Z,43.15
2023-02-19T01:31:34.815Z,43.31
2023-02-19T01:33:39.973Z,43.19
2023-02-19T01:35:44.583Z,42.85
2023-02-19T01:37:49.264Z,42.76
2023-02-19T01:39:53.776Z,43.00
2023-02-19T01:41:58.739Z,43.16
2023-02-19T01:44:04.191Z,43.02
2023-02-19T01:46:08.864Z,42.83
2023-02-19T01:48:18.029Z,42.86
2023-02-19T01:50:22.581Z,42.80
2023-02-19T01:52:30.785Z,43.21
2023-02-19T01:54:38.195Z,42.87
2023-02-19T01:56:44.268Z,43.10
2023-02-19T01:58:50.024Z,43.12
2023-02-19T02:00:54.992Z,43.38
2023-02-19T02:03:00.907Z,43.04
2023-02-19T02:05:10.669Z,43.24
2023-02-19T02:07:27.676Z,42.79
2023-02-19T02:09:46.253Z,42.91
2023-02-19T02:11:52.919Z,43.11
2023-02-19T02:13:58.388Z,42.98
2023-02-19T02:16:08.489Z,42.68
2023-02-19T02:18:18.533Z,42.71
2023-02-19T02:20:35.265Z,42.96
2023-02-19T02:22:40.953Z,42.69
2023-02-19T02:25:01.033Z,43.15
2023-02-19T02:27:15.692Z,42.61
2023-02-19T02:29:44.220Z,42.80
2023-02-19T02:31:54.112Z,43.00
2023-02-19T02:34:02.072Z,42.99
2023-02-19T02:36:09.528Z,42.69
2023-02-19T02:38:17.207Z,42.94
2023-02-19T02:40:22.450Z,43.00
2023-02-19T02:42:32.987Z,42.74
2023-02-19T02:45:05.009Z,42.87
2023-02-19T02:47:33.683Z,42.77
2023-02-19T02:49:59.699Z,43.20
2023-02-19T02:52:24.904Z,42.77
2023-02-19T02:54:45.260Z,42.87
2023-02-19T02:56:53.103Z,43.25
2023-02-19T02:58:59.387Z,42.80
2023-02-19T03:01:18.094Z,42.77
2023-02-19T03:03:26.163Z,43.22
2023-02-19T03:05:43.952Z,43.23
2023-02-19T03:07:50.808Z,43.28
2023-02-19T03:09:57.756Z,43.20
2023-02-19T03:12:17.152Z,43.10
2023-02-19T03:14:37.432Z,43.08
2023-02-19T03:16:55.816Z,43.20
2023-02-19T03:19:16.016Z,43.35
2023-02-19T03:21:22.063Z,43.10
2023-02-19T03:23:50.643Z,43.08
2023-02-19T03:26:04.841Z,43.37
2023-02-19T03:28:20.604Z,43.45
2023-02-19T03:30:27.300Z,43.41
2023-02-19T03:32:33.996Z,43.24
2023-02-19T03:34:44.430Z,43.50
2023-02-19T03:36:53.778Z,43.21
2023-02-19T03:39:01.507Z,43.52
2023-02-19T03:41:10.450Z,43.25
2023-02-19T03:43:21.855Z,43.38
2023-02-19T03:45:35.746Z,43.37
2023-02-19T03:47:45.430Z,43.51
2023-02-19T03:49:58.182Z,43.43
2023-02-19T03:52:07.354Z,43.36
2023-02-19T03:54:16.059Z,43.47
2023-02-19T03:56:25.697Z,43.50
2023-02-19T03:58:34.434Z,43.43
2023-02-19T04:00:41.825Z,43.31
2023-02-19T04:02:50.943Z,43.47
2023-02-19T04:05:03.338Z,43.65
2023-02-19T04:07:08.382Z,43.55
2023-02-19T04:09:17.349Z,43.55
2023-02-19T04:11:27.349Z,43.64
2023-02-19T04:13:40.445Z,43.53
2023-02-19T04:15:46.567Z,43.77
2023-02-19T04:17:54.961Z,43.73
2023-02-19T04:20:04.016Z,43.52
2023-02-19T04:22:09.077Z,43.82
2023-02-19T04:24:16.451Z,43.81
2023-02-19T04:26:22.991Z,43.73
2023-02-19T04:28:27.601Z,43.88
2023-02-19T04:30:32.125Z,43.83
2023-02-19T04:32:36.681Z,43.87
2023-02-19T04:34:41.216Z,43.84
2023-02-19T04:36:48.419Z,43.89
2023-02-19T04:38:52.890Z,43.79
2023-02-19T04:40:57.429Z,44.05
2023-02-19T04:43:01.893Z,43.67
2023-02-19T04:45:06.825Z,43.63
2023-02-19T04:47:11.585Z,43.86
2023-02-19T04:49:16.116Z,43.73
2023-02-19T04:51:20.666Z,43.72
2023-02-19T04:53:27.795Z,43.90
2023-02-19T04:55:32.284Z,43.76
2023-02-19T04:57:37.294Z,43.84
2023-02-19T04:59:41.757Z,43.66
2023-02-19T05:01:46.481Z,43.77
2023-02-19T05:03:50.987Z,43.81
2023-02-19T05:05:55.764Z,43.82
2023-02-19T05:08:00.204Z,44.20
2023-02-19T05:10:07.688Z,43.76
2023-02-19T05:12:12.413Z,43.79
2023-02-19T05:14:17.299Z,43.86
2023-02-19T05:16:21.806Z,44.27
2023-02-19T05:18:26.252Z,44.06
2023-02-19T05:20:30.741Z,44.23
2023-02-19T05:22:35.371Z,44.00
2023-02-19T05:24:39.842Z,43.86
2023-02-19T05:26:48.330Z,43.88
2023-02-19T05:28:55.517Z,43.95
2023-02-19T05:31:00.127Z,43.83
2023-02-19T05:33:04.556Z,43.77
2023-02-19T05:35:09.445Z,43.86
2023-02-19T05:37:13.912Z,44.00
2023-02-19T05:39:18.533Z,44.34
2023-02-19T05:41:23.870Z,43.86
2023-02-19T05:43:30.928Z,43.94
2023-02-19T05:45:35.895Z,44.33
2023-02-19T05:47:40.362Z,44.16
2023-02-19T05:49:44.851Z,44.41
2023-02-19T05:51:49.480Z,44.20
2023-02-19T05:53:54.184Z,44.45
2023-02-19T05:55:58.986Z,44.26
2023-02-19T05:58:03.676Z,44.25
2023-02-19T06:00:12.122Z,44.29
2023-02-19T06:02:19.199Z,44.37
2023-02-19T06:04:24.157Z,44.27
2023-02-19T06:06:29.569Z,44.15
2023-02-19T06:08:34.153Z,44.37
2023-02-19T06:10:40.250Z,44.15
2023-02-19T06:12:44.757Z,44.24
2023-02-19T06:14:49.554Z,44.54
2023-02-19T06:16:57.000Z,44.46
2023-02-19T06:19:01.432Z,44.40
2023-02-19T06:21:06.136Z,44.69
2023-02-19T06:23:10.616Z,44.31
2023-02-19T06:25:15.174Z,44.71
2023-02-19T06:27:19.690Z,44.62
2023-02-19T06:29:24.212Z,44.61
2023-02-19T06:31:28.773Z,44.49
2023-02-19T06:33:36.470Z,44.33
2023-02-19T06:35:40.910Z,44.34
2023-02-19T06:37:45.459Z,44.29
2023-02-19T06:39:51.112Z,44.51
2023-02-19T06:41:58.002Z,44.71
2023-02-19T06:44:02.834Z,44.42
2023-02-19T06:46:08.006Z,44.42
2023-02-19T06:48:12.421Z,44.44
2023-02-19T06:50:19.778Z,44.69
2023-02-19T06:52:24.318Z,44.64
2023-02-19T06:54:28.808Z,44.69
2023-02-19T06:56:34.132Z,44.51
2023-02-19T06:58:38.563Z,44.53
2023-02-19T07:00:43.064Z,44.32
2023-02-19T07:02:47.575Z,44.75
2023-02-19T07:04:52.044Z,44.60
2023-02-19T07:07:00.345Z,44.64
2023-02-19T07:09:05.342Z,44.25
2023-02-19T07:11:10.428Z,44.38
2023-02-19T07:13:15.418Z,44.26
2023-02-19T07:15:20.358Z,44.58
2023-02-19T07:17:24.806Z,44.58
2023-02-19T07:19:29.533Z,44.55
2023-02-19T07:21:37.794Z,44.33
2023-02-19T07:23:45.650Z,44.25
2023-02-19T07:25:50.204Z,44.31
2023-02-19T07:27:54.635Z,44.23
2023-02-19T07:29:59.327Z,44.45
2023-02-19T07:32:04.287Z,44.34
2023-02-19T07:34:09.722Z,44.36
2023-02-19T07:36:14.640Z,44.44
2023-02-19T07:38:19.647Z,44.23
2023-02-19T07:40:26.843Z,44.51
2023-02-19T07:42:31.687Z,44.25
2023-02-19T07:44:36.175Z,44.42
2023-02-19T07:46:40.790Z,44.14
2023-02-19T07:48:45.983Z,44.04
2023-02-19T07:50:53.684Z,44.37
2023-02-19T07:52:58.207Z,44.19
2023-02-19T07:55:02.694Z,44.24
2023-02-19T07:57:10.204Z,44.32
2023-02-19T07:59:15.959Z,44.19
2023-02-19T08:01:41.536Z,43.86
2023-02-19T08:03:43.889Z,43.91
2023-02-19T08:05:49.988Z,43.95
2023-02-19T08:07:54.604Z,44.13
2023-02-19T08:10:22.081Z,44.31
2023-02-19T08:12:41.680Z,43.98
2023-02-19T08:14:46.252Z,44.14
2023-02-19T08:16:51.560Z,44.14
2023-02-19T08:18:56.462Z,44.25
2023-02-19T08:21:01.764Z,44.20
2023-02-19T08:23:06.377Z,44.32
2023-02-19T08:25:11.413Z,44.01
2023-02-19T08:27:15.926Z,44.24
2023-02-19T08:29:23.183Z,44.39
2023-02-19T08:31:27.955Z,44.27
2023-02-19T08:33:33.282Z,44.11
2023-02-19T08:35:38.300Z,44.20
2023-02-19T08:37:42.995Z,44.29
2023-02-19T08:39:47.752Z,44.54
2023-02-19T08:41:52.219Z,44.39
2023-02-19T08:43:56.714Z,44.48
2023-02-19T08:46:04.150Z,44.45
2023-02-19T08:48:09.056Z,44.27
2023-02-19T08:50:14.214Z,44.28
2023-02-19T08:52:18.686Z,44.48
2023-02-19T08:54:23.084Z,44.57
2023-02-19T08:56:27.582Z,44.23
2023-02-19T08:58:32.981Z,44.20
2023-02-19T09:00:37.597Z,44.25
2023-02-19T09:02:44.714Z,44.19
2023-02-19T09:04:49.220Z,44.33
2023-02-19T09:06:53.878Z,44.27
2023-02-19T09:08:58.418Z,44.61
2023-02-19T09:11:03.574Z,44.64
2023-02-19T09:13:08.281Z,44.46
2023-02-19T09:15:13.019Z,44.53
2023-02-19T09:17:17.552Z,44.29
2023-02-19T09:19:25.201Z,44.38
2023-02-19T09:21:29.847Z,44.54
2023-02-19T09:23:35.652Z,44.58
2023-02-19T09:25:40.204Z,44.45
2023-02-19T09:27:44.666Z,44.12
2023-02-19T09:29:49.168Z,44.17
2023-02-19T09:31:53.760Z,44.26
2023-02-19T09:33:58.331Z,44.52
2023-02-19T09:36:06.464Z,44.05
2023-02-19T09:38:11.040Z,44.55
2023-02-19T09:40:21.428Z,44.42
2023-02-19T09:42:27.356Z,44.40
2023-02-19T09:44:32.576Z,44.59
2023-02-19T09:46:40.982Z,44.34
2023-02-19T09:48:45.700Z,44.52
2023-02-19T09:50:51.671Z,44.31
2023-02-19T09:53:01.533Z,44.15
2023-02-19T09:55:08.128Z,44.13
2023-02-19T09:57:16.856Z,44.00
2023-02-19T09:59:23.631Z,43.73
2023-02-19T10:01:29.845Z,44.04
2023-02-19T10:03:35.867Z,43.87
2023-02-19T10:05:41.705Z,43.88
2023-02-19T10:07:47.287Z,43.83
2023-02-19T10:09:56.200Z,43.88
2023-02-19T10:12:01.786Z,43.96
2023-02-19T10:14:09.507Z,43.47
2023-02-19T10:16:17.675Z,43.43
2023-02-19T10:18:23.247Z,43.22
2023-02-19T10:20:29.420Z,43.31
2023-02-19T10:22:35.096Z,42.86
2023-02-19T10:24:39.630Z,42.97
2023-02-19T10:26:47.048Z,43.14
2023-02-19T10:28:51.728Z,43.02
2023-02-19T10:30:57.233Z,42.86
2023-02-19T10:33:02.924Z,43.01
2023-02-19T10:35:11.913Z,42.85
2023-02-19T10:37:18.497Z,43.00
2023-02-19T10:39:36.833Z,43.03
2023-02-19T10:41:44.401Z,42.91
2023-02-19T10:43:55.123Z,42.78
2023-02-19T10:46:00.673Z,42.59
2023-02-19T10:48:05.740Z,42.97
2023-02-19T10:50:21.278Z,42.76
2023-02-19T10:52:27.530Z,42.90
2023-02-19T10:54:32.928Z,42.92
2023-02-19T10:56:38.788Z,42.90
2023-02-19T10:58:44.961Z,42.97
2023-02-19T11:01:12.197Z,42.71
2023-02-19T11:03:21.224Z,42.43
2023-02-19T11:05:26.029Z,42.52
2023-02-19T11:07:30.867Z,42.73
2023-02-19T11:09:39.259Z,42.73
2023-02-19T11:11:43.926Z,42.58
2023-02-19T11:13:48.381Z,42.77
2023-02-19T11:15:57.994Z,42.90
2023-02-19T11:18:05.262Z,42.55
2023-02-19T11:20:13.258Z,42.90
2023-02-19T11:22:22.212Z,42.79
2023-02-19T11:24:34.061Z,42.81
2023-02-19T11:26:38.817Z,42.85
2023-02-19T11:28:43.345Z,42.83
2023-02-19T11:30:48.389Z,43.01
2023-02-19T11:32:55.465Z,42.88
2023-02-19T11:35:15.034Z,42.78
2023-02-19T11:37:20.964Z,43.17
2023-02-19T11:39:30.667Z,42.93
2023-02-19T11:41:54.351Z,43.08
2023-02-19T11:44:09.056Z,42.75
2023-02-19T11:46:19.203Z,42.79
2023-02-19T11:48:53.906Z,42.58
2023-02-19T11:51:06.620Z,42.54
2023-02-19T11:53:18.059Z,42.87
2023-02-19T11:55:28.224Z,42.77
2023-02-19T11:57:41.564Z,42.34
2023-02-19T11:59:50.885Z,42.52
2023-02-19T12:02:08.153Z,42.61
2023-02-19T12:04:31.330Z,42.72
2023-02-19T12:06:44.239Z,42.79
2023-02-19T12:09:05.953Z,42.71
2023-02-19T12:11:28.405Z,42.74
2023-02-19T12:13:39.846Z,42.84
2023-02-19T12:15:52.169Z,42.90
2023-02-19T12:18:12.423Z,42.53
2023-02-19T12:20:22.208Z,42.96
2023-02-19T12:22:33.774Z,42.44
2023-02-19T12:24:49.370Z,42.72
2023-02-19T12:27:02.118Z,42.59
2023-02-19T12:29:15.688Z,42.76
2023-02-19T12:31:35.918Z,42.39
2023-02-19T12:33:49.843Z,42.74
2023-02-19T12:36:00.243Z,42.67
2023-02-19T12:38:12.524Z,42.80
2023-02-19T12:40:26.197Z,42.86
2023-02-19T12:42:39.951Z,42.55
2023-02-19T12:44:46.452Z,42.61
2023-02-19T12:46:52.204Z,42.63
2023-02-19T12:49:00.548Z,42.44
2023-02-19T12:51:08.181Z,42.86
2023-02-19T12:53:27.835Z,42.42
2023-02-19T12:55:34.353Z,42.78
2023-02-19T12:57:41.041Z,42.52
2023-02-19T12:59:49.493Z,42.38
2023-02-19T13:01:59.558Z,42.56
2023-02-19T13:04:12.991Z,42.51
2023-02-19T13:06:24.260Z,42.56
2023-02-19T13:08:36.468Z,42.52
2023-02-19T13:10:43.846Z,42.69
2023-02-19T13:12:49.730Z,42.68
2023-02-19T13:14:57.737Z,42.49
2023-02-19T13:17:04.228Z,42.50
2023-02-19T13:19:09.088Z,42.49
2023-02-19T13:21:35.370Z,42.31
2023-02-19T13:23:57.040Z,42.34
2023-02-19T13:26:09.349Z,42.25
2023-02-19T13:28:21.070Z,42.04
2023-02-19T13:30:33.087Z,42.11
2023-02-19T13:32:47.983Z,42.31
2023-02-19T13:35:02.452Z,42.25
2023-02-19T13:37:07.172Z,42.13
2023-02-19T13:39:17.930Z,42.36
2023-02-19T13:41:24.423Z,42.34
2023-02-19T13:43:29.832Z,42.22
2023-02-19T13:45:37.009Z,41.82
2023-02-19T13:47:51.891Z,42.33
2023-02-19T13:50:08.371Z,41.90
2023-02-19T13:52:28.600Z,42.31
2023-02-19T13:54:40.349Z,42.12
2023-02-19T13:56:44.916Z,41.83
2023-02-19T13:58:58.221Z,41.82
2023-02-19T14:01:03.881Z,42.15
2023-02-19T14:03:23.240Z,41.95
2023-02-19T14:05:42.449Z,41.98
2023-02-19T14:08:06.053Z,41.91
2023-02-19T14:10:15.163Z,41.67
2023-02-19T14:12:23.260Z,41.70
2023-02-19T14:14:28.942Z,41.89
2023-02-19T14:16:35.111Z,41.95
2023-02-19T14:18:46.148Z,41.89
2023-02-19T14:20:50.833Z,41.77
2023-02-19T14:23:03.783Z,41.91
2023-02-19T14:25:12.338Z,41.92
2023-02-19T14:27:19.498Z,41.66
2023-02-19T14:29:24.044Z,42.03
2023-02-19T14:31:30.716Z,41.81
2023-02-19T14:33:36.340Z,42.05
2023-02-19T14:35:42.116Z,41.79
2023-02-19T14:37:48.225Z,41.87
2023-02-19T14:39:54.661Z,41.50
2023-02-19T14:42:00.682Z,41.63
2023-02-19T14:44:09.641Z,41.61
2023-02-19T14:46:19.305Z,41.64
2023-02-19T14:48:25.338Z,41.59
2023-02-19T14:50:32.697Z,41.56
2023-02-19T14:52:40.344Z,41.48
2023-02-19T14:54:46.305Z,41.40
2023-02-19T14:56:52.882Z,41.49
2023-02-19T14:59:23.797Z,41.42
2023-02-19T15:01:28.751Z,41.36
2023-02-19T15:03:34.633Z,41.19
2023-02-19T15:05:39.755Z,41.15
2023-02-19T15:07:44.731Z,41.34
2023-02-19T15:09:51.118Z,41.45
2023-02-19T15:11:57.117Z,41.15
2023-02-19T15:14:03.510Z,41.22
2023-02-19T15:16:10.777Z,41.10
2023-02-19T15:18:20.443Z,41.16
2023-02-19T15:20:27.015Z,40.93
2023-02-19T15:22:34.291Z,41.39
2023-02-19T15:24:38.827Z,41.32
2023-02-19T15:26:44.920Z,41.14
2023-02-19T15:28:49.592Z,41.52
2023-02-19T15:30:54.586Z,41.49
2023-02-19T15:33:02.328Z,41.28
2023-02-19T15:35:07.463Z,41.33
2023-02-19T15:37:15.422Z,41.31
2023-02-19T15:39:22.918Z,41.37
2023-02-19T15:41:29.234Z,41.16
2023-02-19T15:43:36.834Z,41.22
2023-02-19T15:45:43.830Z,41.65
2023-02-19T15:47:51.920Z,41.81
2023-02-19T15:50:03.314Z,41.59
2023-02-19T15:52:11.173Z,41.75
2023-02-19T15:54:19.625Z,41.87
2023-02-19T15:56:28.443Z,41.67
2023-02-19T15:58:34.670Z,41.94
2023-02-19T16:00:42.199Z,41.49
2023-02-19T16:02:46.719Z,41.89
2023-02-19T16:04:51.174Z,41.78
2023-02-19T16:06:59.911Z,41.87
2023-02-19T16:09:05.807Z,41.86
2023-02-19T16:11:28.620Z,41.68
2023-02-19T16:13:34.294Z,41.92
2023-02-19T16:15:38.904Z,41.56
2023-02-19T16:17:45.679Z,41.73
2023-02-19T16:19:53.189Z,41.71
2023-02-19T16:22:01.023Z,41.54
2023-02-19T16:24:08.418Z,41.84
2023-02-19T16:26:13.024Z,41.49
2023-02-19T16:28:23.032Z,41.86
2023-02-19T16:30:31.103Z,41.56
2023-02-19T16:32:35.502Z,41.71
2023-02-19T16:34:43.580Z,41.85
2023-02-19T16:36:49.356Z,41.82
2023-02-19T16:39:06.968Z,41.54
2023-02-19T16:41:16.495Z,41.34
2023-02-19T16:43:29.238Z,41.57
2023-02-19T16:45:33.684Z,41.79
2023-02-19T16:47:41.711Z,41.81
2023-02-19T16:49:46.612Z,41.88
2023-02-19T16:51:51.043Z,41.82
2023-02-19T16:53:55.481Z,41.70
2023-02-19T16:56:02.558Z,41.58
2023-02-19T16:58:06.937Z,41.82
2023-02-19T17:00:12.218Z,41.58
2023-02-19T17:02:19.617Z,41.55
2023-02-19T17:04:24.219Z,41.44
2023-02-19T17:06:28.823Z,41.62
2023-02-19T17:08:37.123Z,41.28
2023-02-19T17:10:41.536Z,41.29
2023-02-19T17:12:48.728Z,41.63
2023-02-19T17:14:53.165Z,41.75
2023-02-19T17:16:57.599Z,41.40
2023-02-19T17:19:01.995Z,41.43
2023-02-19T17:21:13.128Z,41.35
2023-02-19T17:23:17.926Z,41.23
2023-02-19T17:25:22.412Z,41.31
2023-02-19T17:27:26.835Z,41.49
2023-02-19T17:29:37.201Z,41.19
2023-02-19T17:31:42.044Z,41.17
2023-02-19T17:33:46.870Z,41.24
2023-02-19T17:35:51.268Z,41.65
2023-02-19T17:37:55.950Z,41.58
2023-02-19T17:40:00.511Z,41.46
2023-02-19T17:42:06.149Z,41.17
2023-02-19T17:44:10.543Z,41.45
2023-02-19T17:46:19.624Z,41.31
2023-02-19T17:48:24.019Z,41.07
2023-02-19T17:50:29.779Z,41.25
2023-02-19T17:52:34.202Z,41.33
2023-02-19T17:54:38.776Z,41.17
2023-02-19T17:56:46.093Z,41.56
2023-02-19T17:58:50.547Z,41.06
2023-02-19T18:00:55.038Z,41.10
2023-02-19T18:03:02.104Z,41.18
2023-02-19T18:05:06.771Z,41.00
2023-02-19T18:07:11.248Z,41.18
2023-02-19T18:09:18.151Z,41.36
2023-02-19T18:11:23.047Z,41.37
2023-02-19T18:13:27.502Z,41.22
2023-02-19T18:15:32.183Z,41.18
2023-02-19T18:17:36.872Z,41.20
2023-02-19T18:19:45.554Z,40.91
2023-02-19T18:21:49.940Z,41.05
2023-02-19T18:23:54.428Z,41.22
2023-02-19T18:25:58.811Z,40.89
2023-02-19T18:28:03.465Z,40.76
2023-02-19T18:30:09.077Z,41.21
2023-02-19T18:32:13.574Z,40.84
2023-02-19T18:34:19.386Z,41.19
2023-02-19T18:36:26.540Z,40.85
2023-02-19T18:38:31.165Z,41.06
2023-02-19T18:40:35.784Z,40.83
2023-02-19T18:42:40.411Z,40.92
2023-02-19T18:44:45.336Z,41.08
2023-02-19T18:46:49.846Z,41.14
2023-02-19T18:48:54.313Z,41.08
2023-02-19T18:50:58.699Z,41.02
2023-02-19T18:53:05.916Z,40.81
2023-02-19T18:55:11.018Z,40.89
2023-02-19T18:57:15.524Z,41.09
2023-02-19T18:59:20.367Z,40.78
2023-02-19T19:01:25.287Z,40.84
2023-02-19T19:03:32.532Z,41.34
2023-02-19T19:05:37.189Z,41.12
2023-02-19T19:07:41.638Z,41.02
2023-02-19T19:09:48.940Z,40.93
2023-02-19T19:11:53.350Z,41.44
2023-02-19T19:13:57.951Z,41.49
2023-02-19T19:16:02.354Z,41.29
2023-02-19T19:18:07.618Z,41.06
2023-02-19T19:20:13.087Z,41.32
2023-02-19T19:22:22.774Z,41.25
2023-02-19T19:24:27.413Z,41.20
2023-02-19T19:26:34.574Z,41.55
2023-02-19T19:28:40.668Z,41.37
2023-02-19T19:30:45.172Z,41.39
2023-02-19T19:32:52.089Z,41.47
2023-02-19T19:34:57.787Z,41.65
2023-02-19T19:37:02.170Z,41.24
2023-02-19T19:39:06.755Z,41.39
2023-02-19T19:41:11.341Z,41.48
2023-02-19T19:43:18.616Z,41.46
2023-02-19T19:45:23.542Z,41.23
2023-02-19T19:47:28.028Z,41.43
2023-02-19T19:49:33.521Z,41.50
2023-02-19T19:51:38.545Z,41.67
2023-02-19T19:53:43.041Z,41.56
2023-02-19T19:55:47.554Z,41.51
2023-02-19T19:57:53.939Z,41.76
2023-02-19T20:00:01.323Z,41.58
2023-02-19T20:02:06.018Z,41.81
2023-02-19T20:04:10.537Z,41.43
2023-02-19T20:06:14.914Z,41.34
2023-02-19T20:08:20.221Z,41.59
2023-02-19T20:10:25.041Z,41.54
2023-02-19T20:12:29.778Z,41.47
2023-02-19T20:14:34.261Z,41.75
2023-02-19T20:16:43.231Z,41.67
2023-02-19T20:18:49.025Z,41.53
2023-02-19T20:20:53.759Z,41.35
2023-02-19T20:22:58.369Z,41.61
2023-02-19T20:25:03.028Z,41.29
2023-02-19T20:27:07.469Z,41.77
2023-02-19T20:29:12.146Z,41.35
2023-02-19T20:31:16.622Z,41.51
2023-02-19T20:33:23.834Z,41.65
2023-02-19T20:35:29.878Z,41.75
2023-02-19T20:37:34.742Z,41.73
2023-02-19T20:39:39.568Z,41.41
2023-02-19T20:41:47.751Z,41.44
2023-02-19T20:43:52.275Z,41.73
2023-02-19T20:45:56.743Z,41.46
2023-02-19T20:48:01.278Z,41.80
2023-02-19T20:50:08.954Z,41.56
2023-02-19T20:52:13.371Z,41.86
2023-02-19T20:54:19.113Z,41.52
2023-02-19T20:56:23.492Z,41.86
2023-02-19T20:58:28.084Z,41.91
2023-02-19T21:00:32.681Z,41.74
2023-02-19T21:02:37.241Z,41.55
2023-02-19T21:04:41.767Z,41.54
2023-02-19T21:06:50.608Z,41.99
2023-02-19T21:08:55.050Z,41.76
2023-02-19T21:10:59.674Z,41.67
2023-02-19T21:13:04.115Z,41.76
2023-02-19T21:15:08.934Z,41.80
2023-02-19T21:17:13.376Z,41.82
2023-02-19T21:19:17.899Z,41.71
2023-02-19T21:21:25.288Z,41.98
2023-02-19T21:23:32.464Z,41.69
2023-02-19T21:25:36.986Z,41.72
2023-02-19T21:27:41.686Z,41.61
2023-02-19T21:29:46.069Z,41.55
2023-02-19T21:31:51.417Z,41.86
2023-02-19T21:33:55.880Z,41.52
2023-02-19T21:36:00.877Z,41.69
2023-02-19T21:38:05.338Z,41.47
2023-02-19T21:40:13.675Z,41.59
2023-02-19T21:42:18.285Z,41.64
2023-02-19T21:44:23.419Z,41.66
2023-02-19T21:46:28.095Z,41.48
2023-02-19T21:48:32.620Z,41.77
2023-02-19T21:50:37.048Z,41.81
2023-02-19T21:52:41.459Z,41.66
2023-02-19T21:54:45.985Z,41.91
2023-02-19T21:56:53.366Z,41.45
2023-02-19T21:58:57.958Z,41.57
2023-02-19T22:01:02.454Z,41.61
2023-02-19T22:03:06.927Z,41.56
2023-02-19T22:05:11.953Z,41.85
2023-02-19T22:07:16.361Z,41.43
2023-02-19T22:09:20.856Z,41.56
2023-02-19T22:11:25.517Z,41.86
2023-02-19T22:13:32.739Z,41.43
2023-02-19T22:15:37.176Z,41.56
2023-02-19T22:17:41.752Z,41.61
2023-02-19T22:19:46.169Z,41.93
2023-02-19T22:21:50.677Z,41.65
2023-02-19T22:23:55.770Z,41.62
2023-02-19T22:26:00.479Z,41.79
2023-02-19T22:28:07.683Z,41.65
2023-02-19T22:30:15.185Z,41.91
2023-02-19T22:32:19.812Z,41.67
2023-02-19T22:34:24.586Z,42.00
2023-02-19T22:36:31.150Z,42.16
2023-02-19T22:38:35.904Z,41.77
2023-02-19T22:40:40.341Z,41.99
2023-02-19T22:42:44.786Z,41.96
2023-02-19T22:44:49.230Z,41.81
2023-02-19T22:46:57.390Z,42.18
2023-02-19T22:49:04.704Z,41.80
2023-02-19T22:51:13.180Z,42.17
2023-02-19T22:53:17.858Z,41.88
2023-02-19T22:55:22.432Z,41.97
2023-02-19T22:57:28.299Z,42.21
2023-02-19T22:59:33.144Z,42.12
2023-02-19T23:01:37.547Z,42.32
2023-02-19T23:03:50.944Z,42.01
2023-02-19T23:05:55.668Z,42.09
2023-02-19T23:08:00.255Z,42.32
2023-02-19T23:10:04.667Z,42.38
2023-02-19T23:12:11.245Z,42.10
2023-02-19T23:14:16.400Z,42.40
2023-02-19T23:16:21.070Z,42.31
2023-02-19T23:18:25.579Z,42.10
2023-02-19T23:20:33.054Z,42.20
2023-02-19T23:22:37.477Z,42.29
2023-02-19T23:24:41.948Z,42.22
2023-02-19T23:26:46.727Z,41.98
2023-02-19T23:28:51.241Z,42.20
2023-02-19T23:30:55.922Z,41.96
2023-02-19T23:33:00.746Z,41.82
2023-02-19T23:35:05.456Z,41.97
2023-02-19T23:37:12.646Z,42.05
2023-02-19T23:39:18.246Z,41.95
2023-02-19T23:41:22.861Z,41.88
2023-02-19T23:43:27.418Z,42.15
2023-02-19T23:45:32.424Z,42.13
2023-02-19T23:47:36.845Z,41.82
2023-02-19T23:49:41.316Z,42.00
2023-02-19T23:51:45.718Z,41.99
2023-02-19T23:53:53.038Z,41.83
2023-02-19T23:55:57.542Z,41.87
2023-02-19T23:58:02.342Z,41.71
